sensor_id;sensor_type;location;lat;lon;timestamp;P1;durP1;ratioP1;P2;durP2;ratioP2
6467;SDS011;3267;48.794;9.928;2023-07-08T04:02:55;4.20;;;3.78;;
6467;SDS011;3267;48.794;9.928;2023-07-08T04:05:22;5.03;;;3.80;;
6467;SDS011;3267;48.794;9.928;2023-07-08T04:07:48;4.15;;;3.60;;
6467;SDS011;3267;48.794;9.928;2023-07-08T04:10:14;4.80;;;4.10;;
6467;SDS011;3267;48.794;9.928;2023-07-08T04:12:41;5.35;;;4.07;;
6467;SDS011;3267;48.794;9.928;2023-07-08T04:15:08;6.43;;;3.63;;
6467;SDS011;3267;48.794;9.928;2023-07-08T04:18:08;4.45;;;3.67;;
6467;SDS011;3267;48.794;9.928;2023-07-08T04:20:26;5.55;;;4.50;;
6467;SDS011;3267;48.794;9.928;2023-07-08T04:22:52;9.35;;;4.80;;
6467;SDS011;3267;48.794;9.928;2023-07-08T04:25:18;4.90;;;4.40;;
6467;SDS011;3267;48.794;9.928;2023-07-08T04:27:44;6.32;;;4.40;;
6467;SDS011;3267;48.794;9.928;2023-07-08T04:30:14;8.13;;;4.80;;
6467;SDS011;3267;48.794;9.928;2023-07-08T04:32:46;4.95;;;4.25;;
6467;SDS011;3267;48.794;9.928;2023-07-08T04:35:12;6.13;;;4.10;;
6467;SDS011;3267;48.794;9.928;2023-07-08T04:37:37;7.22;;;4.55;;
6467;SDS011;3267;48.794;9.928;2023-07-08T04:40:03;5.68;;;4.30;;
6467;SDS011;3267;48.794;9.928;2023-07-08T04:42:30;7.25;;;4.43;;
6467;SDS011;3267;48.794;9.928;2023-07-08T04:44:55;4.85;;;4.32;;
6467;SDS011;3267;48.794;9.928;2023-07-08T04:47:21;7.40;;;4.20;;
6467;SDS011;3267;48.794;9.928;2023-07-08T04:49:47;5.50;;;4.30;;
6467;SDS011;3267;48.794;9.928;2023-07-08T04:52:12;6.35;;;4.38;;
6467;SDS011;3267;48.794;9.928;2023-07-08T04:54:38;5.93;;;4.43;;
6467;SDS011;3267;48.794;9.928;2023-07-08T04:57:03;6.20;;;4.40;;
6467;SDS011;3267;48.794;9.928;2023-07-08T04:59:29;5.95;;;3.80;;
6467;SDS011;3267;48.794;9.928;2023-07-08T05:01:59;6.55;;;4.35;;
6467;SDS011;3267;48.794;9.928;2023-07-08T05:04:25;5.18;;;3.92;;
6467;SDS011;3267;48.794;9.928;2023-07-08T05:06:51;4.40;;;3.88;;
6467;SDS011;3267;48.794;9.928;2023-07-08T05:09:17;5.28;;;4.18;;
6467;SDS011;3267;48.794;9.928;2023-07-08T05:11:43;6.93;;;4.55;;
6467;SDS011;3267;48.794;9.928;2023-07-08T05:14:08;7.40;;;4.45;;
6467;SDS011;3267;48.794;9.928;2023-07-08T05:16:36;5.82;;;4.38;;
6467;SDS011;3267;48.794;9.928;2023-07-08T05:19:01;4.78;;;4.30;;
6467;SDS011;3267;48.794;9.928;2023-07-08T05:21:28;6.15;;;4.13;;
6467;SDS011;3267;48.794;9.928;2023-07-08T05:23:58;4.70;;;4.20;;
6467;SDS011;3267;48.794;9.928;2023-07-08T05:26:24;5.20;;;4.20;;
6467;SDS011;3267;48.794;9.928;2023-07-08T05:28:50;5.53;;;4.38;;
6467;SDS011;3267;48.794;9.928;2023-07-08T05:31:15;6.40;;;4.53;;
6467;SDS011;3267;48.794;9.928;2023-07-08T05:33:41;7.32;;;4.25;;
6467;SDS011;3267;48.794;9.928;2023-07-08T05:36:06;8.57;;;4.30;;
6467;SDS011;3267;48.794;9.928;2023-07-08T05:38:32;5.32;;;4.13;;
6467;SDS011;3267;48.794;9.928;2023-07-08T05:40:58;5.10;;;4.32;;
6467;SDS011;3267;48.794;9.928;2023-07-08T05:43:24;6.32;;;4.63;;
6467;SDS011;3267;48.794;9.928;2023-07-08T05:45:51;5.57;;;4.00;;
6467;SDS011;3267;48.794;9.928;2023-07-08T05:48:17;7.22;;;4.13;;
6467;SDS011;3267;48.794;9.928;2023-07-08T05:50:42;5.53;;;4.47;;
6467;SDS011;3267;48.794;9.928;2023-07-08T05:53:13;4.70;;;3.90;;
6467;SDS011;3267;48.794;9.928;2023-07-08T05:55:39;6.68;;;4.38;;
6467;SDS011;3267;48.794;9.928;2023-07-08T05:58:05;9.05;;;4.38;;
6467;SDS011;3267;48.794;9.928;2023-07-08T06:00:30;5.18;;;4.20;;
6467;SDS011;3267;48.794;9.928;2023-07-08T06:02:56;7.82;;;4.43;;
6467;SDS011;3267;48.794;9.928;2023-07-08T06:05:22;6.47;;;3.95;;
6467;SDS011;3267;48.794;9.928;2023-07-08T06:07:47;6.68;;;4.15;;
6467;SDS011;3267;48.794;9.928;2023-07-08T06:10:13;8.00;;;4.07;;
6467;SDS011;3267;48.794;9.928;2023-07-08T06:12:38;5.78;;;4.00;;
6467;SDS011;3267;48.794;9.928;2023-07-08T06:15:04;4.97;;;4.47;;
6467;SDS011;3267;48.794;9.928;2023-07-08T06:17:30;6.20;;;4.38;;
6467;SDS011;3267;48.794;9.928;2023-07-08T06:19:56;4.82;;;4.10;;
6467;SDS011;3267;48.794;9.928;2023-07-08T06:22:21;5.57;;;4.18;;
6467;SDS011;3267;48.794;9.928;2023-07-08T06:24:47;7.32;;;4.68;;
6467;SDS011;3267;48.794;9.928;2023-07-08T06:27:13;5.85;;;4.35;;
6467;SDS011;3267;48.794;9.928;2023-07-08T06:29:39;5.68;;;4.25;;
6467;SDS011;3267;48.794;9.928;2023-07-08T06:32:05;5.47;;;4.68;;
6467;SDS011;3267;48.794;9.928;2023-07-08T06:34:31;5.47;;;4.20;;
6467;SDS011;3267;48.794;9.928;2023-07-08T06:36:57;6.03;;;4.10;;
6467;SDS011;3267;48.794;9.928;2023-07-08T06:39:23;4.95;;;4.00;;
6467;SDS011;3267;48.794;9.928;2023-07-08T06:41:48;10.45;;;4.63;;
6467;SDS011;3267;48.794;9.928;2023-07-08T06:44:14;6.07;;;4.38;;
6467;SDS011;3267;48.794;9.928;2023-07-08T06:46:40;7.45;;;4.22;;
6467;SDS011;3267;48.794;9.928;2023-07-08T06:49:06;5.82;;;4.25;;
6467;SDS011;3267;48.794;9.928;2023-07-08T06:51:35;4.88;;;3.88;;
6467;SDS011;3267;48.794;9.928;2023-07-08T06:54:01;5.75;;;4.45;;
6467;SDS011;3267;48.794;9.928;2023-07-08T06:56:36;5.78;;;4.18;;
6467;SDS011;3267;48.794;9.928;2023-07-08T06:59:03;7.18;;;4.13;;
6467;SDS011;3267;48.794;9.928;2023-07-08T07:01:29;4.75;;;3.75;;
6467;SDS011;3267;48.794;9.928;2023-07-08T07:03:55;6.22;;;4.20;;
6467;SDS011;3267;48.794;9.928;2023-07-08T07:06:21;7.80;;;4.35;;
6467;SDS011;3267;48.794;9.928;2023-07-08T07:08:47;8.40;;;4.20;;
6467;SDS011;3267;48.794;9.928;2023-07-08T07:11:12;4.93;;;4.15;;
6467;SDS011;3267;48.794;9.928;2023-07-08T07:13:38;7.80;;;4.22;;
6467;SDS011;3267;48.794;9.928;2023-07-08T07:16:04;8.77;;;4.40;;
6467;SDS011;3267;48.794;9.928;2023-07-08T07:18:30;4.72;;;3.50;;
6467;SDS011;3267;48.794;9.928;2023-07-08T07:20:55;5.50;;;4.00;;
6467;SDS011;3267;48.794;9.928;2023-07-08T07:23:22;6.45;;;3.90;;
6467;SDS011;3267;48.794;9.928;2023-07-08T07:25:48;3.63;;;3.13;;
6467;SDS011;3267;48.794;9.928;2023-07-08T07:28:14;5.80;;;3.30;;
6467;SDS011;3267;48.794;9.928;2023-07-08T07:30:42;7.18;;;3.83;;
6467;SDS011;3267;48.794;9.928;2023-07-08T07:33:11;7.93;;;3.28;;
6467;SDS011;3267;48.794;9.928;2023-07-08T07:35:46;5.18;;;2.70;;
6467;SDS011;3267;48.794;9.928;2023-07-08T07:38:13;4.32;;;3.20;;
6467;SDS011;3267;48.794;9.928;2023-07-08T07:40:39;5.05;;;3.78;;
6467;SDS011;3267;48.794;9.928;2023-07-08T07:43:05;5.45;;;3.22;;
6467;SDS011;3267;48.794;9.928;2023-07-08T07:45:31;5.15;;;3.70;;
6467;SDS011;3267;48.794;9.928;2023-07-08T07:47:57;6.22;;;3.70;;
6467;SDS011;3267;48.794;9.928;2023-07-08T07:50:22;7.38;;;3.72;;
6467;SDS011;3267;48.794;9.928;2023-07-08T07:52:48;5.10;;;3.20;;
6467;SDS011;3267;48.794;9.928;2023-07-08T07:55:14;6.03;;;3.63;;
6467;SDS011;3267;48.794;9.928;2023-07-08T07:57:39;5.30;;;3.22;;
6467;SDS011;3267;48.794;9.928;2023-07-08T08:00:07;6.25;;;3.45;;
6467;SDS011;3267;48.794;9.928;2023-07-08T08:02:34;4.95;;;3.38;;
6467;SDS011;3267;48.794;9.928;2023-07-08T08:05:00;5.03;;;3.08;;
6467;SDS011;3267;48.794;9.928;2023-07-08T08:07:26;5.72;;;3.35;;
6467;SDS011;3267;48.794;9.928;2023-07-08T08:09:51;5.70;;;3.50;;
6467;SDS011;3267;48.794;9.928;2023-07-08T08:12:17;6.40;;;3.75;;
6467;SDS011;3267;48.794;9.928;2023-07-08T08:14:43;5.75;;;3.45;;
6467;SDS011;3267;48.794;9.928;2023-07-08T08:17:08;7.40;;;3.58;;
6467;SDS011;3267;48.794;9.928;2023-07-08T08:19:34;4.30;;;3.30;;
6467;SDS011;3267;48.794;9.928;2023-07-08T08:22:00;5.03;;;3.95;;
6467;SDS011;3267;48.794;9.928;2023-07-08T08:24:25;4.90;;;3.33;;
6467;SDS011;3267;48.794;9.928;2023-07-08T08:26:51;8.88;;;3.70;;
6467;SDS011;3267;48.794;9.928;2023-07-08T08:29:17;5.63;;;3.63;;
6467;SDS011;3267;48.794;9.928;2023-07-08T08:31:42;6.00;;;3.70;;
6467;SDS011;3267;48.794;9.928;2023-07-08T08:34:08;4.32;;;3.17;;
6467;SDS011;3267;48.794;9.928;2023-07-08T08:36:34;3.30;;;2.80;;
6467;SDS011;3267;48.794;9.928;2023-07-08T08:38:59;5.57;;;3.00;;
6467;SDS011;3267;48.794;9.928;2023-07-08T08:41:32;4.93;;;3.10;;
6467;SDS011;3267;48.794;9.928;2023-07-08T08:44:00;6.10;;;3.67;;
6467;SDS011;3267;48.794;9.928;2023-07-08T08:46:36;6.53;;;3.22;;
6467;SDS011;3267;48.794;9.928;2023-07-08T08:51:55;5.50;;;3.20;;
6467;SDS011;3267;48.794;9.928;2023-07-08T08:54:23;4.30;;;3.40;;
6467;SDS011;3267;48.794;9.928;2023-07-08T08:59:55;5.80;;;3.55;;
6467;SDS011;3267;48.794;9.928;2023-07-08T09:05:06;4.30;;;3.55;;
6467;SDS011;3267;48.794;9.928;2023-07-08T09:13:18;4.47;;;3.17;;
6467;SDS011;3267;48.794;9.928;2023-07-08T09:15:54;6.38;;;3.50;;
6467;SDS011;3267;48.794;9.928;2023-07-08T09:18:42;5.75;;;3.55;;
6467;SDS011;3267;48.794;9.928;2023-07-08T09:21:20;4.30;;;3.03;;
6467;SDS011;3267;48.794;9.928;2023-07-08T09:23:55;7.82;;;3.40;;
6467;SDS011;3267;48.794;9.928;2023-07-08T09:26:25;5.47;;;3.78;;
6467;SDS011;3267;48.794;9.928;2023-07-08T09:28:55;9.27;;;3.85;;
6467;SDS011;3267;48.794;9.928;2023-07-08T09:31:22;5.32;;;3.90;;
6467;SDS011;3267;48.794;9.928;2023-07-08T09:33:51;5.88;;;3.97;;
6467;SDS011;3267;48.794;9.928;2023-07-08T09:36:31;4.47;;;3.92;;
6467;SDS011;3267;48.794;9.928;2023-07-08T09:38:56;5.43;;;3.47;;
6467;SDS011;3267;48.794;9.928;2023-07-08T09:41:32;5.72;;;3.58;;
6467;SDS011;3267;48.794;9.928;2023-07-08T09:46:58;7.07;;;3.40;;
6467;SDS011;3267;48.794;9.928;2023-07-08T09:49:28;5.75;;;4.10;;
6467;SDS011;3267;48.794;9.928;2023-07-08T09:51:56;5.68;;;4.22;;
6467;SDS011;3267;48.794;9.928;2023-07-08T09:54:23;6.50;;;3.53;;
6467;SDS011;3267;48.794;9.928;2023-07-08T09:57:01;6.63;;;3.80;;
6467;SDS011;3267;48.794;9.928;2023-07-08T09:59:38;9.52;;;4.20;;
6467;SDS011;3267;48.794;9.928;2023-07-08T10:05:18;4.95;;;3.47;;
6467;SDS011;3267;48.794;9.928;2023-07-08T10:07:48;7.75;;;3.90;;
6467;SDS011;3267;48.794;9.928;2023-07-08T10:10:19;9.02;;;4.28;;
6467;SDS011;3267;48.794;9.928;2023-07-08T10:12:57;4.18;;;3.40;;
6467;SDS011;3267;48.794;9.928;2023-07-08T10:15:31;6.95;;;3.88;;
6467;SDS011;3267;48.794;9.928;2023-07-08T10:18:02;10.07;;;3.70;;
6467;SDS011;3267;48.794;9.928;2023-07-08T10:20:35;4.65;;;3.80;;
6467;SDS011;3267;48.794;9.928;2023-07-08T10:25:50;5.05;;;3.80;;
6467;SDS011;3267;48.794;9.928;2023-07-08T10:28:33;6.55;;;3.97;;
6467;SDS011;3267;48.794;9.928;2023-07-08T10:31:11;6.85;;;3.97;;
6467;SDS011;3267;48.794;9.928;2023-07-08T10:33:57;5.72;;;4.07;;
6467;SDS011;3267;48.794;9.928;2023-07-08T10:42:12;8.93;;;3.65;;
6467;SDS011;3267;48.794;9.928;2023-07-08T10:47:51;11.38;;;3.58;;
6467;SDS011;3267;48.794;9.928;2023-07-08T10:50:54;6.20;;;3.60;;
6467;SDS011;3267;48.794;9.928;2023-07-08T10:56:40;5.95;;;2.88;;
6467;SDS011;3267;48.794;9.928;2023-07-08T11:10:10;9.55;;;3.25;;
6467;SDS011;3267;48.794;9.928;2023-07-08T11:13:06;5.80;;;3.25;;
6467;SDS011;3267;48.794;9.928;2023-07-08T11:15:48;5.00;;;3.60;;
6467;SDS011;3267;48.794;9.928;2023-07-08T11:19:02;7.88;;;3.58;;
6467;SDS011;3267;48.794;9.928;2023-07-08T11:21:47;3.67;;;2.95;;
6467;SDS011;3267;48.794;9.928;2023-07-08T11:26:53;5.32;;;3.65;;
6467;SDS011;3267;48.794;9.928;2023-07-08T11:29:25;4.35;;;3.33;;
6467;SDS011;3267;48.794;9.928;2023-07-08T11:32:02;3.85;;;3.50;;
6467;SDS011;3267;48.794;9.928;2023-07-08T11:34:30;5.88;;;3.53;;
6467;SDS011;3267;48.794;9.928;2023-07-08T11:36:58;4.22;;;3.15;;
6467;SDS011;3267;48.794;9.928;2023-07-08T11:39:32;8.15;;;3.50;;
6467;SDS011;3267;48.794;9.928;2023-07-08T11:42:09;3.60;;;3.20;;
6467;SDS011;3267;48.794;9.928;2023-07-08T11:45:40;5.47;;;3.03;;
6467;SDS011;3267;48.794;9.928;2023-07-08T11:47:47;5.93;;;2.95;;
6467;SDS011;3267;48.794;9.928;2023-07-08T11:50:24;4.07;;;3.58;;
6467;SDS011;3267;48.794;9.928;2023-07-08T11:55:25;4.63;;;3.03;;
6467;SDS011;3267;48.794;9.928;2023-07-08T11:58:01;4.85;;;3.10;;
6467;SDS011;3267;48.794;9.928;2023-07-08T12:00:32;4.40;;;3.03;;
6467;SDS011;3267;48.794;9.928;2023-07-08T12:03:03;4.38;;;2.85;;
6467;SDS011;3267;48.794;9.928;2023-07-08T12:05:44;3.72;;;2.90;;
6467;SDS011;3267;48.794;9.928;2023-07-08T12:08:12;4.43;;;3.22;;
6467;SDS011;3267;48.794;9.928;2023-07-08T12:10:40;4.13;;;3.10;;
6467;SDS011;3267;48.794;9.928;2023-07-08T12:13:15;4.10;;;3.00;;
6467;SDS011;3267;48.794;9.928;2023-07-08T12:15:46;7.75;;;3.17;;
6467;SDS011;3267;48.794;9.928;2023-07-08T12:18:17;7.90;;;2.47;;
6467;SDS011;3267;48.794;9.928;2023-07-08T12:20:53;10.43;;;3.03;;
6467;SDS011;3267;48.794;9.928;2023-07-08T12:23:22;3.50;;;2.67;;
6467;SDS011;3267;48.794;9.928;2023-07-08T12:25:50;4.15;;;2.50;;
6467;SDS011;3267;48.794;9.928;2023-07-08T12:28:17;5.80;;;3.30;;
6467;SDS011;3267;48.794;9.928;2023-07-08T12:30:44;5.22;;;2.90;;
6467;SDS011;3267;48.794;9.928;2023-07-08T12:33:29;3.47;;;3.15;;
6467;SDS011;3267;48.794;9.928;2023-07-08T12:35:59;5.00;;;2.22;;
6467;SDS011;3267;48.794;9.928;2023-07-08T12:38:33;3.60;;;1.90;;
6467;SDS011;3267;48.794;9.928;2023-07-08T12:41:10;3.20;;;1.80;;
6467;SDS011;3267;48.794;9.928;2023-07-08T12:43:57;2.55;;;1.45;;
6467;SDS011;3267;48.794;9.928;2023-07-08T12:46:24;2.33;;;1.45;;
6467;SDS011;3267;48.794;9.928;2023-07-08T12:48:50;2.60;;;1.70;;
6467;SDS011;3267;48.794;9.928;2023-07-08T12:51:17;1.85;;;1.27;;
6467;SDS011;3267;48.794;9.928;2023-07-08T12:53:49;2.33;;;2.13;;
6467;SDS011;3267;48.794;9.928;2023-07-08T12:56:16;2.95;;;1.98;;
6467;SDS011;3267;48.794;9.928;2023-07-08T12:58:44;4.80;;;1.92;;
6467;SDS011;3267;48.794;9.928;2023-07-08T13:01:15;2.60;;;2.08;;
6467;SDS011;3267;48.794;9.928;2023-07-08T13:03:44;3.03;;;1.80;;
6467;SDS011;3267;48.794;9.928;2023-07-08T13:06:12;2.15;;;1.75;;
6467;SDS011;3267;48.794;9.928;2023-07-08T13:08:42;2.95;;;1.30;;
6467;SDS011;3267;48.794;9.928;2023-07-08T13:11:11;3.03;;;2.10;;
6467;SDS011;3267;48.794;9.928;2023-07-08T13:14:01;3.83;;;1.65;;
6467;SDS011;3267;48.794;9.928;2023-07-08T13:16:30;4.10;;;1.73;;
6467;SDS011;3267;48.794;9.928;2023-07-08T13:18:58;4.30;;;1.60;;
6467;SDS011;3267;48.794;9.928;2023-07-08T13:21:25;2.25;;;1.70;;
6467;SDS011;3267;48.794;9.928;2023-07-08T13:23:52;4.00;;;1.70;;
6467;SDS011;3267;48.794;9.928;2023-07-08T13:26:22;2.78;;;2.03;;
6467;SDS011;3267;48.794;9.928;2023-07-08T13:28:50;3.63;;;1.80;;
6467;SDS011;3267;48.794;9.928;2023-07-08T13:31:23;2.28;;;1.88;;
6467;SDS011;3267;48.794;9.928;2023-07-08T13:33:50;2.80;;;1.80;;
6467;SDS011;3267;48.794;9.928;2023-07-08T13:36:19;5.20;;;2.50;;
6467;SDS011;3267;48.794;9.928;2023-07-08T13:38:59;2.85;;;1.67;;
6467;SDS011;3267;48.794;9.928;2023-07-08T13:41:30;2.53;;;1.73;;
6467;SDS011;3267;48.794;9.928;2023-07-08T13:43:55;4.13;;;1.40;;
6467;SDS011;3267;48.794;9.928;2023-07-08T13:46:25;1.50;;;1.40;;
6467;SDS011;3267;48.794;9.928;2023-07-08T13:49:07;1.80;;;1.45;;
6467;SDS011;3267;48.794;9.928;2023-07-08T13:51:40;3.17;;;1.65;;
6467;SDS011;3267;48.794;9.928;2023-07-08T13:54:26;3.40;;;1.75;;
6467;SDS011;3267;48.794;9.928;2023-07-08T13:56:59;3.80;;;1.85;;
6467;SDS011;3267;48.794;9.928;2023-07-08T13:59:27;3.28;;;1.33;;
6467;SDS011;3267;48.794;9.928;2023-07-08T14:01:54;2.95;;;1.73;;
6467;SDS011;3267;48.794;9.928;2023-07-08T14:04:28;2.92;;;1.77;;
6467;SDS011;3267;48.794;9.928;2023-07-08T14:06:57;2.20;;;1.60;;
6467;SDS011;3267;48.794;9.928;2023-07-08T14:09:23;2.83;;;1.48;;
6467;SDS011;3267;48.794;9.928;2023-07-08T14:11:51;2.47;;;1.55;;
6467;SDS011;3267;48.794;9.928;2023-07-08T14:14:17;2.13;;;1.60;;
6467;SDS011;3267;48.794;9.928;2023-07-08T14:16:50;1.85;;;1.30;;
6467;SDS011;3267;48.794;9.928;2023-07-08T14:21:50;3.22;;;1.90;;
6467;SDS011;3267;48.794;9.928;2023-07-08T14:24:19;2.88;;;1.42;;
6467;SDS011;3267;48.794;9.928;2023-07-08T14:26:44;2.97;;;1.58;;
6467;SDS011;3267;48.794;9.928;2023-07-08T14:29:11;3.78;;;1.85;;
6467;SDS011;3267;48.794;9.928;2023-07-08T14:31:37;2.92;;;1.63;;
6467;SDS011;3267;48.794;9.928;2023-07-08T14:34:08;2.97;;;1.88;;
6467;SDS011;3267;48.794;9.928;2023-07-08T14:36:46;1.95;;;1.75;;
6467;SDS011;3267;48.794;9.928;2023-07-08T14:39:13;2.33;;;1.75;;
6467;SDS011;3267;48.794;9.928;2023-07-08T14:41:40;2.97;;;1.80;;
6467;SDS011;3267;48.794;9.928;2023-07-08T14:44:22;3.67;;;1.80;;
6467;SDS011;3267;48.794;9.928;2023-07-08T14:46:50;3.17;;;1.75;;
6467;SDS011;3267;48.794;9.928;2023-07-08T14:49:21;2.65;;;1.80;;
6467;SDS011;3267;48.794;9.928;2023-07-08T14:51:48;4.72;;;1.80;;
6467;SDS011;3267;48.794;9.928;2023-07-08T14:54:14;1.80;;;1.60;;
6467;SDS011;3267;48.794;9.928;2023-07-08T14:56:40;1.85;;;1.50;;
6467;SDS011;3267;48.794;9.928;2023-07-08T14:59:07;3.35;;;1.90;;
6467;SDS011;3267;48.794;9.928;2023-07-08T15:01:39;2.92;;;1.90;;
6467;SDS011;3267;48.794;9.928;2023-07-08T15:04:12;3.00;;;1.67;;
6467;SDS011;3267;48.794;9.928;2023-07-08T15:06:38;2.50;;;1.67;;
6467;SDS011;3267;48.794;9.928;2023-07-08T15:09:05;2.08;;;1.90;;
6467;SDS011;3267;48.794;9.928;2023-07-08T15:11:31;3.60;;;1.70;;
6467;SDS011;3267;48.794;9.928;2023-07-08T15:13:58;2.83;;;1.77;;
6467;SDS011;3267;48.794;9.928;2023-07-08T15:16:24;2.45;;;1.77;;
6467;SDS011;3267;48.794;9.928;2023-07-08T15:18:50;2.40;;;1.60;;
6467;SDS011;3267;48.794;9.928;2023-07-08T15:21:16;7.07;;;2.38;;
6467;SDS011;3267;48.794;9.928;2023-07-08T15:23:41;2.20;;;1.70;;
6467;SDS011;3267;48.794;9.928;2023-07-08T15:26:11;4.43;;;1.88;;
6467;SDS011;3267;48.794;9.928;2023-07-08T15:28:46;2.13;;;1.73;;
6467;SDS011;3267;48.794;9.928;2023-07-08T15:31:16;2.65;;;1.70;;
6467;SDS011;3267;48.794;9.928;2023-07-08T15:33:49;2.97;;;2.20;;
6467;SDS011;3267;48.794;9.928;2023-07-08T15:36:16;3.60;;;1.95;;
6467;SDS011;3267;48.794;9.928;2023-07-08T15:38:42;2.97;;;1.83;;
6467;SDS011;3267;48.794;9.928;2023-07-08T15:43:53;2.50;;;2.08;;
6467;SDS011;3267;48.794;9.928;2023-07-08T15:46:20;2.55;;;2.13;;
6467;SDS011;3267;48.794;9.928;2023-07-08T15:48:46;2.67;;;1.83;;
6467;SDS011;3267;48.794;9.928;2023-07-08T15:51:13;3.67;;;2.05;;
6467;SDS011;3267;48.794;9.928;2023-07-08T15:53:39;4.13;;;2.25;;
6467;SDS011;3267;48.794;9.928;2023-07-08T15:56:05;2.53;;;2.08;;
6467;SDS011;3267;48.794;9.928;2023-07-08T15:58:36;2.58;;;2.22;;
6467;SDS011;3267;48.794;9.928;2023-07-08T16:01:02;5.05;;;1.95;;
6467;SDS011;3267;48.794;9.928;2023-07-08T16:03:33;4.78;;;2.22;;
6467;SDS011;3267;48.794;9.928;2023-07-08T16:06:01;4.13;;;2.13;;
6467;SDS011;3267;48.794;9.928;2023-07-08T16:08:27;2.05;;;1.65;;
6467;SDS011;3267;48.794;9.928;2023-07-08T16:10:57;2.00;;;1.80;;
6467;SDS011;3267;48.794;9.928;2023-07-08T16:13:26;2.30;;;2.10;;
6467;SDS011;3267;48.794;9.928;2023-07-08T16:15:54;3.28;;;1.88;;
6467;SDS011;3267;48.794;9.928;2023-07-08T16:18:20;6.68;;;2.83;;
6467;SDS011;3267;48.794;9.928;2023-07-08T16:20:46;5.75;;;2.30;;
6467;SDS011;3267;48.794;9.928;2023-07-08T16:23:12;8.25;;;2.10;;
6467;SDS011;3267;48.794;9.928;2023-07-08T16:25:39;2.70;;;1.77;;
6467;SDS011;3267;48.794;9.928;2023-07-08T16:28:27;3.15;;;2.05;;
6467;SDS011;3267;48.794;9.928;2023-07-08T16:30:58;3.65;;;1.90;;
6467;SDS011;3267;48.794;9.928;2023-07-08T16:33:24;2.35;;;1.75;;
6467;SDS011;3267;48.794;9.928;2023-07-08T16:35:50;4.43;;;1.95;;
6467;SDS011;3267;48.794;9.928;2023-07-08T16:38:16;6.28;;;2.50;;
6467;SDS011;3267;48.794;9.928;2023-07-08T16:40:42;2.67;;;2.08;;
6467;SDS011;3267;48.794;9.928;2023-07-08T16:43:20;5.55;;;1.92;;
6467;SDS011;3267;48.794;9.928;2023-07-08T16:45:49;5.18;;;2.53;;
6467;SDS011;3267;48.794;9.928;2023-07-08T16:48:16;2.78;;;2.38;;
6467;SDS011;3267;48.794;9.928;2023-07-08T16:50:43;3.70;;;1.75;;
6467;SDS011;3267;48.794;9.928;2023-07-08T16:53:10;3.45;;;2.10;;
6467;SDS011;3267;48.794;9.928;2023-07-08T16:55:36;3.25;;;2.22;;
6467;SDS011;3267;48.794;9.928;2023-07-08T16:58:02;5.18;;;2.47;;
6467;SDS011;3267;48.794;9.928;2023-07-08T17:00:28;3.47;;;1.90;;
6467;SDS011;3267;48.794;9.928;2023-07-08T17:02:55;5.13;;;2.30;;
6467;SDS011;3267;48.794;9.928;2023-07-08T17:07:49;3.97;;;2.03;;
6467;SDS011;3267;48.794;9.928;2023-07-08T17:10:16;3.00;;;2.03;;
6467;SDS011;3267;48.794;9.928;2023-07-08T17:12:42;2.13;;;1.92;;
6467;SDS011;3267;48.794;9.928;2023-07-08T17:15:09;4.07;;;1.75;;
6467;SDS011;3267;48.794;9.928;2023-07-08T17:17:35;4.75;;;2.38;;
6467;SDS011;3267;48.794;9.928;2023-07-08T17:20:17;5.25;;;2.30;;
6467;SDS011;3267;48.794;9.928;2023-07-08T17:22:48;7.15;;;2.10;;
6467;SDS011;3267;48.794;9.928;2023-07-08T17:25:15;7.25;;;2.38;;
6467;SDS011;3267;48.794;9.928;2023-07-08T17:27:43;3.78;;;1.85;;
6467;SDS011;3267;48.794;9.928;2023-07-08T17:30:10;3.35;;;2.03;;
6467;SDS011;3267;48.794;9.928;2023-07-08T17:32:37;2.53;;;2.00;;
6467;SDS011;3267;48.794;9.928;2023-07-08T17:35:04;4.75;;;2.20;;
6467;SDS011;3267;48.794;9.928;2023-07-08T17:37:33;4.53;;;2.00;;
6467;SDS011;3267;48.794;9.928;2023-07-08T17:39:59;2.40;;;2.20;;
6467;SDS011;3267;48.794;9.928;2023-07-08T17:42:24;5.07;;;2.22;;
6467;SDS011;3267;48.794;9.928;2023-07-08T17:44:50;2.05;;;1.85;;
6467;SDS011;3267;48.794;9.928;2023-07-08T17:47:15;2.72;;;1.65;;
6467;SDS011;3267;48.794;9.928;2023-07-08T17:49:42;4.50;;;2.97;;
6467;SDS011;3267;48.794;9.928;2023-07-08T17:52:11;6.60;;;2.38;;
6467;SDS011;3267;48.794;9.928;2023-07-08T17:54:36;4.47;;;3.13;;
6467;SDS011;3267;48.794;9.928;2023-07-08T17:57:02;4.05;;;2.33;;
6467;SDS011;3267;48.794;9.928;2023-07-08T17:59:28;4.25;;;2.33;;
6467;SDS011;3267;48.794;9.928;2023-07-08T18:01:54;3.05;;;2.20;;
6467;SDS011;3267;48.794;9.928;2023-07-08T18:04:20;3.22;;;2.13;;
6467;SDS011;3267;48.794;9.928;2023-07-08T18:06:46;5.07;;;2.33;;
6467;SDS011;3267;48.794;9.928;2023-07-08T18:09:12;3.30;;;2.38;;
6467;SDS011;3267;48.794;9.928;2023-07-08T18:11:40;6.90;;;2.33;;
6467;SDS011;3267;48.794;9.928;2023-07-08T18:14:09;4.22;;;2.20;;
6467;SDS011;3267;48.794;9.928;2023-07-08T18:16:36;3.47;;;1.90;;
6467;SDS011;3267;48.794;9.928;2023-07-08T18:19:02;2.45;;;2.00;;
6467;SDS011;3267;48.794;9.928;2023-07-08T18:21:27;5.50;;;2.17;;
6467;SDS011;3267;48.794;9.928;2023-07-08T18:23:53;3.85;;;2.30;;
6467;SDS011;3267;48.794;9.928;2023-07-08T18:28:50;6.20;;;2.28;;
6467;SDS011;3267;48.794;9.928;2023-07-08T18:31:17;4.28;;;2.35;;
6467;SDS011;3267;48.794;9.928;2023-07-08T18:33:46;5.35;;;2.60;;
6467;SDS011;3267;48.794;9.928;2023-07-08T18:36:12;3.80;;;2.72;;
6467;SDS011;3267;48.794;9.928;2023-07-08T18:38:38;7.78;;;2.10;;
6467;SDS011;3267;48.794;9.928;2023-07-08T18:44:13;2.63;;;2.00;;
6467;SDS011;3267;48.794;9.928;2023-07-08T18:46:46;2.20;;;2.00;;
6467;SDS011;3267;48.794;9.928;2023-07-08T18:49:12;7.97;;;1.90;;
6467;SDS011;3267;48.794;9.928;2023-07-08T18:51:42;5.95;;;2.63;;
6467;SDS011;3267;48.794;9.928;2023-07-08T18:54:15;5.95;;;2.40;;
6467;SDS011;3267;48.794;9.928;2023-07-08T18:56:45;2.03;;;1.80;;
6467;SDS011;3267;48.794;9.928;2023-07-08T18:59:12;5.05;;;2.20;;
6467;SDS011;3267;48.794;9.928;2023-07-08T19:01:39;4.03;;;1.90;;
6467;SDS011;3267;48.794;9.928;2023-07-08T19:04:09;2.22;;;1.95;;
6467;SDS011;3267;48.794;9.928;2023-07-08T19:06:42;4.50;;;1.90;;
6467;SDS011;3267;48.794;9.928;2023-07-08T19:09:10;2.95;;;1.90;;
6467;SDS011;3267;48.794;9.928;2023-07-08T19:11:36;2.40;;;1.98;;
6467;SDS011;3267;48.794;9.928;2023-07-08T19:14:08;3.45;;;1.92;;
6467;SDS011;3267;48.794;9.928;2023-07-08T19:16:41;5.20;;;2.05;;
6467;SDS011;3267;48.794;9.928;2023-07-08T19:19:07;4.95;;;1.92;;
6467;SDS011;3267;48.794;9.928;2023-07-08T19:21:33;2.92;;;1.85;;
6467;SDS011;3267;48.794;9.928;2023-07-08T19:23:59;2.10;;;1.88;;
6467;SDS011;3267;48.794;9.928;2023-07-08T19:26:26;2.55;;;1.70;;
6467;SDS011;3267;48.794;9.928;2023-07-08T19:28:52;2.80;;;1.63;;
6467;SDS011;3267;48.794;9.928;2023-07-08T19:33:57;1.83;;;1.60;;
6467;SDS011;3267;48.794;9.928;2023-07-08T19:36:24;2.05;;;1.90;;
6467;SDS011;3267;48.794;9.928;2023-07-08T19:38:50;2.55;;;1.55;;
6467;SDS011;3267;48.794;9.928;2023-07-08T19:41:23;2.97;;;1.55;;
6467;SDS011;3267;48.794;9.928;2023-07-08T19:43:58;3.75;;;1.60;;
6467;SDS011;3267;48.794;9.928;2023-07-08T19:46:26;4.32;;;2.33;;
6467;SDS011;3267;48.794;9.928;2023-07-08T19:48:52;3.33;;;2.58;;
6467;SDS011;3267;48.794;9.928;2023-07-08T19:51:18;1.73;;;1.63;;
6467;SDS011;3267;48.794;9.928;2023-07-08T19:53:44;2.22;;;1.88;;
6467;SDS011;3267;48.794;9.928;2023-07-08T19:56:13;4.30;;;1.85;;
6467;SDS011;3267;48.794;9.928;2023-07-08T19:58:44;2.42;;;1.83;;
6467;SDS011;3267;48.794;9.928;2023-07-08T20:01:10;3.08;;;1.25;;
6467;SDS011;3267;48.794;9.928;2023-07-08T20:03:36;4.57;;;2.67;;
6467;SDS011;3267;48.794;9.928;2023-07-08T20:06:12;2.22;;;2.03;;
6467;SDS011;3267;48.794;9.928;2023-07-08T20:08:42;2.17;;;1.80;;
6467;SDS011;3267;48.794;9.928;2023-07-08T20:11:09;2.80;;;2.15;;
6467;SDS011;3267;48.794;9.928;2023-07-08T20:13:35;4.65;;;1.55;;
6467;SDS011;3267;48.794;9.928;2023-07-08T20:16:13;3.00;;;1.83;;
6467;SDS011;3267;48.794;9.928;2023-07-08T20:18:49;2.85;;;1.70;;
6467;SDS011;3267;48.794;9.928;2023-07-08T20:21:21;3.22;;;1.85;;
6467;SDS011;3267;48.794;9.928;2023-07-08T20:23:47;2.90;;;1.63;;
6467;SDS011;3267;48.794;9.928;2023-07-08T20:26:27;2.83;;;1.80;;
6467;SDS011;3267;48.794;9.928;2023-07-08T20:28:57;5.72;;;1.83;;
6467;SDS011;3267;48.794;9.928;2023-07-08T20:31:24;4.82;;;1.70;;
6467;SDS011;3267;48.794;9.928;2023-07-08T20:33:50;4.55;;;1.90;;
6467;SDS011;3267;48.794;9.928;2023-07-08T20:36:18;2.03;;;1.40;;